METAR AND TAF INFORMATION
METAR FOR LEIB
ADDS - METARS form results

(1004 UTC 19 June 2018)
Data provider http://aviationweather.gov/adds/metars/
 
METAR text: LEIB 191000Z 09008KT 060V120 9999 FEW020 27/17 Q1021 NOSIG
Conditions at: LEIB (IBIZA/ES CODOLA , ES) observed 1000 UTC 19 June 2018
Temperature: 27.0°C (81°F)
Dewpoint: 17.0°C (63°F) [RH = 54%]
Pressure (altimeter): 30.15 inches Hg (1021.0 mb)
Winds: from the E (90 degrees) at 9 MPH (8 knots; 4.2 m/s)
Visibility: 6 or more miles (10+ km)
Ceiling: at least 12,000 feet AGL
Clouds: few clouds at 2000 feet AGL
Weather: no significant weather observed at this time

METAR text: LEIB 190930Z 08009KT 050V140 9999 FEW020 26/17 Q1021 NOSIG
Conditions at: LEIB (IBIZA/ES CODOLA , ES) observed 0930 UTC 19 June 2018
Temperature: 26.0°C (79°F)
Dewpoint: 17.0°C (63°F) [RH = 58%]
Pressure (altimeter): 30.15 inches Hg (1021.0 mb)
Winds: from the E (80 degrees) at 10 MPH (9 knots; 4.7 m/s)
Visibility: 6 or more miles (10+ km)
Ceiling: at least 12,000 feet AGL
Clouds: few clouds at 2000 feet AGL
Weather: no significant weather observed at this time

Forecast for: LEIB (IBIZA/ES CODOLA , ES)
Text: TAF LEIB 190800Z 1909/2009 07010KT 9999 FEW025 TX29/1912Z TN18/2005Z
Forecast period: 0900 to 1900 UTC 19 June 2018
Forecast type: FROM: standard forecast or significant change
Winds: from the ENE (70 degrees) at 12 MPH (10 knots; 5.2 m/s)
Visibility: 6 or more miles (10+ km)
Clouds: few clouds at 2500 feet AGL
Weather: no significant weather forecast for this period
Text: TEMPO 1909/1917 01012G22KT
Forecast period: 0900 to 1700 UTC 19 June 2018
Forecast type: TEMPORARY: The following changes expected for less than half the time period
Winds: from the N (10 degrees) at 14 MPH (12 knots; 6.2 m/s)
gusting to 25 MPH (22 knots; 11.4 m/s)
Weather: no significant weather forecast for this period
Text: BECMG 1919/1921 VRB03KT
Forecast period: 1900 UTC 19 June 2018 to 0900 UTC 20 June 2018
Forecast type: BECOMING: Conditions expected to become as follows by 2100 UTC 19 June 2018
Winds: variable direction winds at 3 MPH (3 knots; 1.6 m/s)
Visibility: 6 or more miles (10+ km)
Clouds: few clouds at 2500 feet AGL
Weather: no significant weather forecast for this period

 AIRPORT MAP

 RUNWAY INFORMATION
Runway 06 Runway length 9186 ft Runway width 148 ft
Runway elevation 13 ft Runway displaced threshold 0 ft Runway heading 62
Runway 24 Runway length 9186 ft Runway width 148 ft
Runway elevation 16 ft Runway displaced threshold 0 ft Runway heading 242

 AIRPORT FREQUENCIES
Type APP Name PALMA APP Frequency 118.125 MHZ
Type APP Name APP Frequency 119.8 MHZ
Type ATIS Name ATIS Frequency 117.8 MHZ
Type GND Name GND Frequency 121.8 MHZ
Type TWR Name TWR Frequency 118.5 MHZ

 AIRPORT NEAR NAVIGATION AIDS
Type VOR-DME Name Ibiza Frequency 117800 KHZ
Type NDB Name Ibiza Frequency 394 KHZ



Powered by Virtual Airlines Manager [v2.6.2]